Latest Coastal Weather Observations for Low Rocky Point

IDT60701

Issued at 4:35 pm EST Tuesday 2 September 2014 (issued every 10 minutes, with the page automatically refreshed every 10 minutes)

About coastal observations | Map of coastal stations | Coastal observations for TAS | Marine services | Other Formats
Station Details ID: 097080 Name: LOW ROCKY POINT Lat: -42.98 Lon: 145.50 Height: 34.0 m
Data from the previous 72 hours. | See also: Recent months at Low Rocky Point
Date/Time
EST
Temp

°C
Wind Pressure Rain
since 9am
mm
Weather Cloud Vis
km
Sea
Height
m
Swell
Dir
 
Speed
knots
Gust
knots
hPa Trend Height
m
Period
s
Dir
02/04:30pm 11.2 SW 9 13 1020.4 - 0.2 - - - - - - -
02/04:00pm 10.1 SSW 11 15 1020.3 - 0.2 - - - - - - -
02/03:30pm 10.9 SSW 12 17 1020.1 - 0.2 - - - - - - -
02/03:00pm 11.2 SW 13 17 1020.0 - 0.2 - - - - - - -
02/02:30pm 10.9 SW 15 20 1019.7 - 0.2 - - - - - - -
02/02:00pm 10.6 SSW 11 16 1019.6 - 0.2 - - - - - - -
02/01:30pm 11.7 S 13 17 1019.5 - 0.2 - - - - - - -
02/01:00pm 10.2 SW 11 17 1019.6 - 0.2 - - - - - - -
02/12:30pm 10.3 SW 8 11 1019.7 - 0.0 - - - - - - -
02/12:00pm 9.7 SW 11 13 1019.9 - 0.0 - - - - - - -
02/11:30am 9.9 WSW 15 19 1019.9 - 0.0 - - - - - - -
02/11:00am 10.5 WSW 13 20 1019.7 - 0.0 - - - - - - -
02/10:30am 11.9 WSW 8 11 1019.5 - 0.0 - - - - - - -
02/10:00am 11.2 W 9 13 1019.3 - 0.0 - - - - - - -
02/09:30am 10.9 WSW 8 11 1019.1 - 0.0 - - - - - - -
02/09:00am 10.6 SW 7 10 1019.0 - 5.0 - - - - - - -
02/08:30am 10.0 SW 8 12 1018.8 - 5.0 - - - - - - -
02/08:00am 8.7 WSW 9 13 1018.4 - 5.0 - - - - - - -
02/07:30am 8.6 SW 9 12 1018.0 - 5.0 - - - - - - -
02/07:00am 8.4 SSW 9 13 1017.6 - 5.0 - - - - - - -
02/06:30am 8.7 SSW 10 15 1017.2 - 5.0 - - - - - - -
02/06:00am 8.5 SSW 6 9 1016.9 - 5.0 - - - - - - -
02/05:30am 8.4 S 9 13 1016.4 - 5.0 - - - - - - -
02/05:00am 8.4 SSE 9 14 1016.0 - 5.0 - - - - - - -
02/04:30am 8.1 S 9 12 1015.7 - 5.0 - - - - - - -
02/04:00am 8.7 S 12 16 1015.4 - 5.0 - - - - - - -
02/03:30am 8.4 SSE 13 17 1015.2 - 5.0 - - - - - - -
02/03:00am 8.8 S 15 20 1014.9 - 5.0 - - - - - - -
02/02:30am 8.8 S 14 19 1014.7 - 5.0 - - - - - - -
02/02:00am 8.8 S 14 19 1014.5 - 5.0 - - - - - - -
02/01:30am 8.8 S 15 21 1014.3 - 5.0 - - - - - - -
02/01:00am 9.2 SSE 15 19 1013.9 - 5.0 - - - - - - -
02/12:30am 9.1 S 15 21 1013.6 - 5.0 - - - - - - -
02/12:00am 9.3 SSE 16 20 1013.3 - 5.0 - - - - - - -
 
Date/Time
EST
Temp

°C
Wind Pressure Rain
since 9am
mm
Weather Cloud Vis
km
Sea
Height
m
Swell
Dir
 
Speed
knots
Gust
knots
hPa Trend Height
m
Period
s
Dir
01/11:30pm 9.1 SSE 15 21 1012.9 - 5.0 - - - - - - -
01/11:00pm 9.3 S 17 22 1012.7 - 5.0 - - - - - - -
01/10:30pm 9.2 SSE 16 22 1012.5 - 5.0 - - - - - - -
01/10:00pm 9.5 SSE 18 23 1012.1 - 5.0 - - - - - - -
01/09:30pm 9.5 S 18 22 1011.7 - 5.0 - - - - - - -
01/09:00pm 9.2 S 17 22 1011.2 - 5.0 Recent precip. - - - - - -
01/08:30pm 8.0 ESE 9 15 1010.9 - 5.0 - - - - - - -
01/08:00pm 8.3 ESE 15 20 1010.4 - 4.8 - - - - - - -
01/07:30pm 9.1 ESE 12 15 1009.9 - 4.6 - - - - - - -
01/07:00pm 9.1 ESE 10 12 1009.4 - 4.6 - - - - - - -
01/06:30pm 9.6 ESE 13 15 1008.7 - 4.6 - - - - - - -
01/06:00pm 10.4 SSE 17 22 1008.0 - 4.6 - - - - - - -
01/05:30pm 10.5 SSE 14 19 1007.7 - 4.6 - - - - - - -
01/05:00pm 10.3 S 13 17 1007.2 - 4.6 - - - - - - -
01/04:30pm 10.2 SSE 9 13 1006.5 - 4.6 - - - - - - -
01/04:00pm 10.5 SSE 11 14 1006.4 - 4.6 - - - - - - -
01/03:30pm 10.8 SSE 13 17 1005.8 - 4.6 - - - - - - -
01/03:00pm 11.1 SSE 13 17 1005.6 - 4.6 - - - - - - -
01/02:30pm 11.0 SE 14 19 1005.4 - 4.6 - - - - - - -
01/02:00pm 10.5 SSE 15 18 1005.3 - 4.6 - - - - - - -
01/01:30pm 10.8 SE 18 22 1004.8 - 4.6 - - - - - - -
01/01:00pm 10.0 SSE 19 24 1004.6 - 4.6 - - - - - - -
01/12:30pm 10.0 SSE 20 25 1004.4 - 4.6 - - - - - - -
01/12:00pm 9.6 SSE 19 25 1004.4 - 4.6 - - - - - - -
01/11:30am 9.6 SSE 18 24 1004.2 - 4.6 - - - - - - -
01/11:00am 9.5 SSE 19 25 1003.7 - 4.6 - - - - - - -
01/10:30am 10.1 S 18 25 1003.5 - 4.0 - - - - - - -
01/10:05am 10.0 SSE 18 22 1002.9 - 2.6 - - - - - - -
01/10:00am 10.2 SSE 8 11 1003.0 - 2.4 - - - - - - -
01/09:30am 10.2 S 12 15 1003.0 - 1.4 - - - - - - -
01/09:00am 10.4 S 8 11 1003.0 - 14.6 Rain - - - - - -
01/08:30am 10.5 S 11 14 1002.9 - 13.2 - - - - - - -
01/08:00am 10.7 SSW 2 5 1002.9 - 11.4 - - - - - - -
01/07:30am 10.7 W 8 12 1002.5 - 6.8 - - - - - - -
01/07:11am 11.4 N 15 25 1002.7 - 6.2 - - - - - - -
01/07:00am 11.2 N 10 17 1002.5 - 5.8 - - - - - - -
01/06:30am 11.1 N 5 8 1002.9 - 5.0 - - - - - - -
01/06:00am 11.3 W 13 18 1003.2 - 3.4 Rain - - - - - -
01/05:38am 11.5 WNW 16 26 1003.4 - 2.8 - - - - - - -
01/05:36am 11.6 WNW 17 26 1003.4 - 2.6 - - - - - - -
01/05:30am 11.9 NNW 21 29 1003.0 - 2.6 - - - - - - -
01/05:07am 12.1 NNW 22 32 1003.0 - 2.2 - - - - - - -
01/05:00am 12.2 NNW 24 31 1003.1 - 2.0 - - - - - - -
01/04:39am 12.2 NNW 24 34 1003.2 - 1.6 - - - - - - -
01/04:30am 12.4 NNW 24 33 1003.2 - 1.2 - - - - - - -
01/04:00am 12.7 NNW 28 34 1003.4 - 0.4 - - - - - - -
01/03:39am 12.7 NNW 27 38 1003.3 - 0.2 - - - - - - -
01/03:30am 13.0 NNW 27 34 1003.3 - 0.2 - - - - - - -
01/03:02am 14.1 NNW 28 38 1003.4 - 0.0 - - - - - - -
01/03:00am 14.2 NNW 28 36 1003.3 - 0.0 - - - - - - -
01/02:30am 14.8 NNW 25 35 1003.3 - 0.0 - - - - - - -
01/02:10am 14.9 NNW 23 34 1003.5 - 0.0 - - - - - - -
01/02:00am 14.5 NNW 21 29 1003.6 - 0.0 - - - - - - -
01/01:30am 15.2 NNW 20 31 1003.9 - 0.0 - - - - - - -
01/01:00am 15.3 NNW 25 35 1003.9 - 0.0 - - - - - - -
01/12:30am 16.1 NNW 24 36 1004.2 - 0.0 - - - - - - -
01/12:00am 15.7 N 21 31 1004.3 - 0.0 - - - - - - -
 
Date/Time
EST
Temp

°C
Wind Pressure Rain
since 9am
mm
Weather Cloud Vis
km
Sea
Height
m
Swell
Dir
 
Speed
knots
Gust
knots
hPa Trend Height
m
Period
s
Dir
31/11:48pm 15.5 N 18 29 1004.3 - 0.0 - - - - - - -
31/11:30pm 15.5 N 19 26 1004.5 - 0.0 - - - - - - -
31/11:18pm 15.6 N 18 29 1004.4 - 0.0 - - - - - - -
31/11:00pm 15.2 N 17 25 1004.8 - 0.0 - - - - - - -
31/10:30pm 14.4 N 15 20 1005.6 - 0.0 - - - - - - -
31/10:00pm 14.6 N 13 17 1006.5 - 0.0 - - - - - - -
31/09:30pm 14.6 N 13 20 1006.9 - 0.0 - - - - - - -
31/09:00pm 14.5 N 13 18 1007.1 - 0.0 - - - - - - -
31/08:30pm 14.8 N 13 18 1007.4 - 0.0 - - - - - - -
31/08:00pm 15.2 N 12 17 1007.5 - 0.0 - - - - - - -
31/07:30pm 15.5 N 12 17 1007.6 - 0.0 - - - - - - -
31/07:00pm 15.5 N 11 17 1007.7 - 0.0 - - - - - - -
31/06:30pm 15.6 N 12 17 1007.8 - 0.0 - - - - - - -
31/06:00pm 16.0 N 12 17 1007.8 - 0.0 - - - - - - -
31/05:30pm 16.8 N 14 20 1008.0 - 0.0 - - - - - - -
31/05:00pm 17.3 N 16 23 1008.2 - 0.0 - - - - - - -
31/04:33pm 17.5 N 15 25 1008.2 - 0.0 - - - - - - -
31/04:30pm 17.6 N 16 25 1008.2 - 0.0 - - - - - - -
31/04:16pm 17.7 NNW 17 27 1008.3 - 0.0 - - - - - - -
31/04:00pm 18.1 NNW 17 25 1008.5 - 0.0 - - - - - - -
31/03:40pm 18.4 NNW 19 29 1008.7 - 0.0 - - - - - - -
31/03:30pm 18.6 N 18 24 1008.7 - 0.0 - - - - - - -
31/03:00pm 18.6 N 13 21 1009.0 - 0.0 - - - - - - -
31/02:30pm 18.4 N 15 21 1009.4 - 0.0 - - - - - - -
31/02:00pm 18.6 NNW 17 24 1009.8 - 0.0 - - - - - - -
31/01:30pm 17.9 NNW 18 25 1010.2 - 0.0 - - - - - - -
31/01:00pm 17.7 NNW 22 29 1010.6 - 0.0 - - - - - - -
31/12:40pm 18.4 NNW 18 28 1011.0 - 0.0 - - - - - - -
31/12:30pm 18.2 NNW 18 26 1011.3 - 0.0 - - - - - - -
31/12:00pm 17.2 NNW 16 26 1011.9 - 0.0 - - - - - - -
31/11:59am 17.2 NNW 15 26 1011.9 - 0.0 - - - - - - -
31/11:30am 17.1 N 16 23 1012.3 - 0.0 - - - - - - -
31/11:00am 17.1 N 17 24 1012.5 - 0.0 - - - - - - -
31/10:30am 16.1 N 15 23 1012.9 - 0.0 - - - - - - -
31/10:00am 15.8 N 14 19 1013.2 - 0.0 - - - - - - -
31/09:30am 15.1 N 16 22 1013.4 - 0.0 - - - - - - -
31/09:00am 13.4 N 14 20 1013.7 - 0.0 - - - - - - -
31/08:30am 12.6 N 15 18 1013.9 - 0.0 - - - - - - -
31/08:00am 11.3 N 15 21 1014.0 - 0.0 - - - - - - -
31/07:30am 10.3 N 14 20 1014.2 - 0.0 - - - - - - -
31/07:00am 10.2 N 15 20 1014.3 - 0.0 - - - - - - -
31/06:30am 9.9 N 14 18 1014.3 - 0.0 - - - - - - -
31/06:00am 9.6 N 14 20 1014.3 - 0.0 - - - - - - -
31/05:30am 8.6 N 12 16 1014.6 - 0.0 - - - - - - -
31/05:00am 8.4 N 11 16 1014.7 - 0.0 - - - - - - -
31/04:30am 7.7 N 10 13 1015.1 - 0.0 - - - - - - -
31/04:00am 7.0 N 10 12 1015.4 - 0.0 - - - - - - -
31/03:30am 6.9 N 10 12 1016.0 - 0.0 - - - - - - -
31/03:00am 6.5 N 10 12 1016.2 - 0.0 - - - - - - -
31/02:30am 6.9 N 10 13 1016.6 - 0.0 - - - - - - -
31/02:00am 7.1 N 8 12 1017.2 - 0.0 - - - - - - -
31/01:30am 8.7 N 11 13 1017.6 - 0.0 - - - - - - -
31/01:00am 8.7 N 11 14 1017.9 - 0.0 - - - - - - -
31/12:30am 8.8 N 11 13 1018.1 - 0.0 - - - - - - -
31/12:00am 8.5 N 10 12 1018.6 - 0.0 - - - - - - -
 
Date/Time
EST
Temp

°C
Wind Pressure Rain
since 9am
mm
Weather Cloud Vis
km
Sea
Height
m
Swell
Dir
 
Speed
knots
Gust
knots
hPa Trend Height
m
Period
s
Dir
30/11:30pm 9.1 N 11 12 1018.6 - 0.0 - - - - - - -
30/11:00pm 8.7 N 9 9 1019.1 - 0.0 - - - - - - -
30/10:30pm 9.2 N 10 11 1019.3 - 0.0 - - - - - - -
30/10:00pm 9.3 NNE 12 13 1019.6 - 0.0 - - - - - - -
30/09:30pm 9.4 NE 11 11 1019.9 - 0.0 - - - - - - -
30/09:00pm 9.2 NE 9 10 1020.4 - 0.0 - - - - - - -
30/08:30pm 9.6 ENE 8 8 1020.7 - 0.0 - - - - - - -
30/08:00pm 9.7 ENE 6 7 1021.0 - 0.0 - - - - - - -
30/07:30pm 9.8 E 5 7 1021.0 - 0.0 - - - - - - -
30/07:00pm 10.2 E 5 6 1021.1 - 0.0 - - - - - - -
30/06:30pm 11.1 ESE 3 4 1021.3 - 0.0 - - - - - - -
30/06:00pm 11.1 CALM 0 0 1021.4 - 0.0 - - - - - - -
30/05:30pm 13.1 CALM 0 0 1021.4 - 0.0 - - - - - - -
30/05:00pm 14.1 WNW 3 4 1021.6 - 0.0 - - - - - - -

Other Formats:

Comma delimited format used in spreadsheet applications
http://www.bom.gov.au/fwo/IDT60701/IDT60701.95961.axf

JavaScript Object Notation format (JSON) in row-major order
http://www.bom.gov.au/fwo/IDT60701/IDT60701.95961.json